sensor_id;sensor_type;location;lat;lon;timestamp;P1;P2;P0
64699;PMS5003;53804;44.742;19.698;2022-08-07T00:00:06;8.00;7.00;5.00
64699;PMS5003;53804;44.742;19.698;2022-08-07T00:00:27;7.00;7.00;5.00
64699;PMS5003;53804;44.742;19.698;2022-08-07T00:00:48;8.60;7.00;5.00
64699;PMS5003;53804;44.742;19.698;2022-08-07T00:01:09;11.20;8.80;5.00
64699;PMS5003;53804;44.742;19.698;2022-08-07T00:01:31;11.20;7.60;5.00
64699;PMS5003;53804;44.742;19.698;2022-08-07T00:01:52;7.00;7.00;4.00
64699;PMS5003;53804;44.742;19.698;2022-08-07T00:02:16;6.00;6.00;4.00
64699;PMS5003;53804;44.742;19.698;2022-08-07T00:02:37;8.00;7.00;5.00
64699;PMS5003;53804;44.742;19.698;2022-08-07T00:02:58;7.00;6.00;4.00
64699;PMS5003;53804;44.742;19.698;2022-08-07T00:03:20;7.25;7.25;5.00
64699;PMS5003;53804;44.742;19.698;2022-08-07T00:03:43;8.00;6.00;5.00
64699;PMS5003;53804;44.742;19.698;2022-08-07T00:04:04;7.00;7.00;5.00
64699;PMS5003;53804;44.742;19.698;2022-08-07T00:04:26;8.60;8.00;5.00
64699;PMS5003;53804;44.742;19.698;2022-08-07T00:04:47;7.00;7.00;5.00
64699;PMS5003;53804;44.742;19.698;2022-08-07T00:05:08;7.00;7.00;4.60
64699;PMS5003;53804;44.742;19.698;2022-08-07T00:05:29;7.00;7.00;5.00
64699;PMS5003;53804;44.742;19.698;2022-08-07T00:05:51;8.50;7.00;5.00
64699;PMS5003;53804;44.742;19.698;2022-08-07T00:06:15;4.00;4.00;3.00
64699;PMS5003;53804;44.742;19.698;2022-08-07T00:06:36;5.60;4.40;3.40
64699;PMS5003;53804;44.742;19.698;2022-08-07T00:06:58;4.80;4.80;3.20
64699;PMS5003;53804;44.742;19.698;2022-08-07T00:07:19;6.00;6.00;4.00
64699;PMS5003;53804;44.742;19.698;2022-08-07T00:07:40;5.50;5.50;3.00
64699;PMS5003;53804;44.742;19.698;2022-08-07T00:08:01;6.75;5.00;3.00
64699;PMS5003;53804;44.742;19.698;2022-08-07T00:08:22;7.60;6.40;4.00
64699;PMS5003;53804;44.742;19.698;2022-08-07T00:08:44;5.40;5.40;4.00
64699;PMS5003;53804;44.742;19.698;2022-08-07T00:09:05;6.20;6.20;5.00
64699;PMS5003;53804;44.742;19.698;2022-08-07T00:09:29;7.00;7.00;5.00
64699;PMS5003;53804;44.742;19.698;2022-08-07T00:09:50;8.00;7.00;5.00
64699;PMS5003;53804;44.742;19.698;2022-08-07T00:10:11;8.00;7.00;5.00
64699;PMS5003;53804;44.742;19.698;2022-08-07T00:10:32;6.00;6.00;4.00
64699;PMS5003;53804;44.742;19.698;2022-08-07T00:10:53;9.40;9.00;6.00
64699;PMS5003;53804;44.742;19.698;2022-08-07T00:11:14;9.20;7.40;6.00
64699;PMS5003;53804;44.742;19.698;2022-08-07T00:11:35;7.40;5.40;4.40
64699;PMS5003;53804;44.742;19.698;2022-08-07T00:11:56;6.60;6.60;4.60
64699;PMS5003;53804;44.742;19.698;2022-08-07T00:12:17;5.50;5.50;4.50
64699;PMS5003;53804;44.742;19.698;2022-08-07T00:12:38;5.40;5.40;4.80
64699;PMS5003;53804;44.742;19.698;2022-08-07T00:13:01;9.00;7.00;5.00
64699;PMS5003;53804;44.742;19.698;2022-08-07T00:13:23;4.40;4.40;3.00
64699;PMS5003;53804;44.742;19.698;2022-08-07T00:13:44;6.00;6.00;4.20
64699;PMS5003;53804;44.742;19.698;2022-08-07T00:14:06;7.00;5.40;5.00
64699;PMS5003;53804;44.742;19.698;2022-08-07T00:14:27;7.60;5.00;4.00
64699;PMS5003;53804;44.742;19.698;2022-08-07T00:14:49;9.80;7.80;5.00
64699;PMS5003;53804;44.742;19.698;2022-08-07T00:15:11;6.00;6.00;5.00
64699;PMS5003;53804;44.742;19.698;2022-08-07T00:15:32;7.25;7.00;4.00
64699;PMS5003;53804;44.742;19.698;2022-08-07T00:15:53;6.00;6.00;4.00
64699;PMS5003;53804;44.742;19.698;2022-08-07T00:16:14;7.60;6.60;5.00
64699;PMS5003;53804;44.742;19.698;2022-08-07T00:16:35;8.00;8.00;5.00
64699;PMS5003;53804;44.742;19.698;2022-08-07T00:16:59;7.00;7.00;4.60
64699;PMS5003;53804;44.742;19.698;2022-08-07T00:17:21;7.20;6.20;5.00
64699;PMS5003;53804;44.742;19.698;2022-08-07T00:17:42;6.00;6.00;4.20
64699;PMS5003;53804;44.742;19.698;2022-08-07T00:18:03;6.00;6.00;4.80
64699;PMS5003;53804;44.742;19.698;2022-08-07T00:18:25;7.00;7.00;5.00
64699;PMS5003;53804;44.742;19.698;2022-08-07T00:18:46;7.00;6.00;5.00
64699;PMS5003;53804;44.742;19.698;2022-08-07T00:19:08;8.00;7.00;4.80
64699;PMS5003;53804;44.742;19.698;2022-08-07T00:19:29;8.00;8.00;5.00
64699;PMS5003;53804;44.742;19.698;2022-08-07T00:19:50;7.00;7.00;4.60
64699;PMS5003;53804;44.742;19.698;2022-08-07T00:20:11;8.00;8.00;6.00
64699;PMS5003;53804;44.742;19.698;2022-08-07T00:20:32;7.00;7.00;5.00
64699;PMS5003;53804;44.742;19.698;2022-08-07T00:20:54;6.25;5.25;3.50
64699;PMS5003;53804;44.742;19.698;2022-08-07T00:21:16;12.00;8.60;5.60
64699;PMS5003;53804;44.742;19.698;2022-08-07T00:21:37;10.00;9.00;5.75
64699;PMS5003;53804;44.742;19.698;2022-08-07T00:21:58;8.00;8.00;5.00
64699;PMS5003;53804;44.742;19.698;2022-08-07T00:22:19;5.50;5.00;3.00
64699;PMS5003;53804;44.742;19.698;2022-08-07T00:22:40;9.00;6.00;3.60
64699;PMS5003;53804;44.742;19.698;2022-08-07T00:23:01;8.00;8.00;4.00
64699;PMS5003;53804;44.742;19.698;2022-08-07T00:23:25;6.40;5.40;3.40
64699;PMS5003;53804;44.742;19.698;2022-08-07T00:23:46;7.00;7.00;4.40
64699;PMS5003;53804;44.742;19.698;2022-08-07T00:24:07;8.00;6.40;5.40
64699;PMS5003;53804;44.742;19.698;2022-08-07T00:24:29;8.00;7.00;4.20
64699;PMS5003;53804;44.742;19.698;2022-08-07T00:24:50;6.80;5.80;3.80
64699;PMS5003;53804;44.742;19.698;2022-08-07T00:25:11;5.00;5.00;4.00
64699;PMS5003;53804;44.742;19.698;2022-08-07T00:25:32;7.60;7.60;4.80
64699;PMS5003;53804;44.742;19.698;2022-08-07T00:25:53;7.60;5.00;3.80
64699;PMS5003;53804;44.742;19.698;2022-08-07T00:26:14;9.00;8.00;6.00
64699;PMS5003;53804;44.742;19.698;2022-08-07T00:26:36;7.25;7.25;5.00
64699;PMS5003;53804;44.742;19.698;2022-08-07T00:26:57;7.00;6.00;3.60
64699;PMS5003;53804;44.742;19.698;2022-08-07T00:27:18;10.00;7.40;5.00
64699;PMS5003;53804;44.742;19.698;2022-08-07T00:27:39;9.20;7.00;4.00
64699;PMS5003;53804;44.742;19.698;2022-08-07T00:28:00;8.20;6.80;4.00
64699;PMS5003;53804;44.742;19.698;2022-08-07T00:28:21;7.80;6.00;4.00
64699;PMS5003;53804;44.742;19.698;2022-08-07T00:28:43;7.00;7.00;5.00
64699;PMS5003;53804;44.742;19.698;2022-08-07T00:29:04;8.00;8.00;5.00
64699;PMS5003;53804;44.742;19.698;2022-08-07T00:29:25;8.20;7.20;5.00
64699;PMS5003;53804;44.742;19.698;2022-08-07T00:29:48;8.80;8.00;5.00
64699;PMS5003;53804;44.742;19.698;2022-08-07T00:30:09;8.40;5.60;4.00
64699;PMS5003;53804;44.742;19.698;2022-08-07T00:30:31;10.00;7.40;5.00
64699;PMS5003;53804;44.742;19.698;2022-08-07T00:30:52;8.00;6.00;4.00
64699;PMS5003;53804;44.742;19.698;2022-08-07T00:31:13;6.00;4.50;3.50
64699;PMS5003;53804;44.742;19.698;2022-08-07T00:31:34;5.60;5.00;3.60
64699;PMS5003;53804;44.742;19.698;2022-08-07T00:31:55;7.00;7.00;5.00
64699;PMS5003;53804;44.742;19.698;2022-08-07T00:32:18;8.00;8.00;5.00
64699;PMS5003;53804;44.742;19.698;2022-08-07T00:32:42;8.00;6.00;5.00
64699;PMS5003;53804;44.742;19.698;2022-08-07T00:33:03;8.20;6.80;4.80
64699;PMS5003;53804;44.742;19.698;2022-08-07T00:33:25;6.50;6.00;4.75
64699;PMS5003;53804;44.742;19.698;2022-08-07T00:33:47;9.00;6.00;4.00
64699;PMS5003;53804;44.742;19.698;2022-08-07T00:34:08;6.00;6.00;4.60
64699;PMS5003;53804;44.742;19.698;2022-08-07T00:34:29;9.60;9.00;6.00
64699;PMS5003;53804;44.742;19.698;2022-08-07T00:34:50;10.80;8.20;5.40
64699;PMS5003;53804;44.742;19.698;2022-08-07T00:35:13;7.00;7.00;5.40
64699;PMS5003;53804;44.742;19.698;2022-08-07T00:35:34;6.00;6.00;4.00
64699;PMS5003;53804;44.742;19.698;2022-08-07T00:35:55;6.00;6.00;3.00
64699;PMS5003;53804;44.742;19.698;2022-08-07T00:36:17;8.00;8.00;5.80
64699;PMS5003;53804;44.742;19.698;2022-08-07T00:36:38;8.00;8.00;6.00
64699;PMS5003;53804;44.742;19.698;2022-08-07T00:37:05;9.00;9.00;6.00
64699;PMS5003;53804;44.742;19.698;2022-08-07T00:37:26;8.00;7.00;4.40
64699;PMS5003;53804;44.742;19.698;2022-08-07T00:37:47;8.00;7.00;4.00
64699;PMS5003;53804;44.742;19.698;2022-08-07T00:38:09;8.00;6.40;5.00
64699;PMS5003;53804;44.742;19.698;2022-08-07T00:38:33;6.00;6.00;4.00
64699;PMS5003;53804;44.742;19.698;2022-08-07T00:38:55;4.25;4.25;3.25
64699;PMS5003;53804;44.742;19.698;2022-08-07T00:39:16;6.00;4.75;3.00
64699;PMS5003;53804;44.742;19.698;2022-08-07T00:39:39;5.00;5.00;4.00
64699;PMS5003;53804;44.742;19.698;2022-08-07T00:40:00;7.00;7.00;5.00
64699;PMS5003;53804;44.742;19.698;2022-08-07T00:40:21;8.00;6.50;4.50
64699;PMS5003;53804;44.742;19.698;2022-08-07T00:40:42;8.00;8.00;5.00
64699;PMS5003;53804;44.742;19.698;2022-08-07T00:41:03;9.00;8.00;6.00
64699;PMS5003;53804;44.742;19.698;2022-08-07T00:41:25;10.00;8.00;5.00
64699;PMS5003;53804;44.742;19.698;2022-08-07T00:41:47;6.00;6.00;4.20
64699;PMS5003;53804;44.742;19.698;2022-08-07T00:42:09;5.60;5.60;3.60
64699;PMS5003;53804;44.742;19.698;2022-08-07T00:42:31;8.80;7.60;5.60
64699;PMS5003;53804;44.742;19.698;2022-08-07T00:42:52;9.00;8.00;6.00
64699;PMS5003;53804;44.742;19.698;2022-08-07T00:43:13;7.00;7.00;5.00
64699;PMS5003;53804;44.742;19.698;2022-08-07T00:43:35;5.25;5.25;3.25
64699;PMS5003;53804;44.742;19.698;2022-08-07T00:43:56;7.60;6.60;4.60
64699;PMS5003;53804;44.742;19.698;2022-08-07T00:44:17;7.60;6.40;4.60
64699;PMS5003;53804;44.742;19.698;2022-08-07T00:44:38;6.40;6.40;3.40
64699;PMS5003;53804;44.742;19.698;2022-08-07T00:44:59;7.80;6.00;4.00
64699;PMS5003;53804;44.742;19.698;2022-08-07T00:45:20;7.20;6.00;5.00
64699;PMS5003;53804;44.742;19.698;2022-08-07T00:45:42;6.00;6.00;5.00
64699;PMS5003;53804;44.742;19.698;2022-08-07T00:46:03;9.00;8.00;5.00
64699;PMS5003;53804;44.742;19.698;2022-08-07T00:46:24;8.50;8.50;4.00
64699;PMS5003;53804;44.742;19.698;2022-08-07T00:46:45;7.00;7.00;4.00
64699;PMS5003;53804;44.742;19.698;2022-08-07T00:47:06;7.00;6.00;4.00
64699;PMS5003;53804;44.742;19.698;2022-08-07T00:47:27;6.00;6.00;4.00
64699;PMS5003;53804;44.742;19.698;2022-08-07T00:47:49;7.50;6.00;4.00
64699;PMS5003;53804;44.742;19.698;2022-08-07T00:48:10;6.80;4.80;4.80
64699;PMS5003;53804;44.742;19.698;2022-08-07T00:48:31;8.00;5.00;3.60
64699;PMS5003;53804;44.742;19.698;2022-08-07T00:48:52;5.20;4.60;3.00
64699;PMS5003;53804;44.742;19.698;2022-08-07T00:49:13;5.80;5.80;3.20
64699;PMS5003;53804;44.742;19.698;2022-08-07T00:49:35;5.80;5.80;3.80
64699;PMS5003;53804;44.742;19.698;2022-08-07T00:49:56;6.00;6.00;5.00
64699;PMS5003;53804;44.742;19.698;2022-08-07T00:50:17;5.40;5.40;4.40
64699;PMS5003;53804;44.742;19.698;2022-08-07T00:50:38;7.00;7.00;5.00
64699;PMS5003;53804;44.742;19.698;2022-08-07T00:50:59;7.00;7.00;4.50
64699;PMS5003;53804;44.742;19.698;2022-08-07T00:51:21;4.00;4.00;4.00
64699;PMS5003;53804;44.742;19.698;2022-08-07T00:51:42;6.00;6.00;4.00
64699;PMS5003;53804;44.742;19.698;2022-08-07T00:52:04;6.00;5.00;3.60
64699;PMS5003;53804;44.742;19.698;2022-08-07T00:52:25;6.00;5.00;4.00
64699;PMS5003;53804;44.742;19.698;2022-08-07T00:52:46;6.00;3.50;2.50
64699;PMS5003;53804;44.742;19.698;2022-08-07T00:53:07;7.00;4.00;2.00
64699;PMS5003;53804;44.742;19.698;2022-08-07T00:53:28;5.40;5.40;3.80
64699;PMS5003;53804;44.742;19.698;2022-08-07T00:53:49;4.75;4.75;2.75
64699;PMS5003;53804;44.742;19.698;2022-08-07T00:54:10;5.60;5.60;4.00
64699;PMS5003;53804;44.742;19.698;2022-08-07T00:54:34;5.60;5.60;3.00
64699;PMS5003;53804;44.742;19.698;2022-08-07T00:54:55;4.60;4.60;3.60
64699;PMS5003;53804;44.742;19.698;2022-08-07T00:55:16;5.00;4.75;3.00
64699;PMS5003;53804;44.742;19.698;2022-08-07T00:55:37;6.00;5.00;4.00
64699;PMS5003;53804;44.742;19.698;2022-08-07T00:55:58;3.60;3.60;2.60
64699;PMS5003;53804;44.742;19.698;2022-08-07T00:56:22;3.00;3.00;3.00
64699;PMS5003;53804;44.742;19.698;2022-08-07T00:56:43;4.00;4.00;2.00
64699;PMS5003;53804;44.742;19.698;2022-08-07T00:57:04;4.00;4.00;3.00
64699;PMS5003;53804;44.742;19.698;2022-08-07T00:57:26;5.60;5.60;4.00
64699;PMS5003;53804;44.742;19.698;2022-08-07T00:57:47;4.50;4.50;3.50
64699;PMS5003;53804;44.742;19.698;2022-08-07T00:58:08;4.80;4.80;3.20
64699;PMS5003;53804;44.742;19.698;2022-08-07T00:58:30;4.50;4.50;3.25
64699;PMS5003;53804;44.742;19.698;2022-08-07T00:58:51;4.75;4.25;2.25
64699;PMS5003;53804;44.742;19.698;2022-08-07T00:59:12;5.00;5.00;3.40
64699;PMS5003;53804;44.742;19.698;2022-08-07T00:59:33;3.20;3.20;2.20
64699;PMS5003;53804;44.742;19.698;2022-08-07T00:59:55;4.00;4.00;3.00
64699;PMS5003;53804;44.742;19.698;2022-08-07T01:00:16;3.20;3.20;2.20
64699;PMS5003;53804;44.742;19.698;2022-08-07T01:00:38;4.25;4.25;3.00
64699;PMS5003;53804;44.742;19.698;2022-08-07T01:00:59;5.00;5.00;3.60
64699;PMS5003;53804;44.742;19.698;2022-08-07T01:01:20;4.00;4.00;2.60
64699;PMS5003;53804;44.742;19.698;2022-08-07T01:01:42;3.00;3.00;2.00
64699;PMS5003;53804;44.742;19.698;2022-08-07T01:02:08;6.00;5.00;3.00
64699;PMS5003;53804;44.742;19.698;2022-08-07T01:02:30;6.40;4.00;3.00
64699;PMS5003;53804;44.742;19.698;2022-08-07T01:02:51;7.00;4.00;2.40
64699;PMS5003;53804;44.742;19.698;2022-08-07T01:03:12;3.00;3.00;2.60
64699;PMS5003;53804;44.742;19.698;2022-08-07T01:03:33;5.25;5.25;2.50
64699;PMS5003;53804;44.742;19.698;2022-08-07T01:03:54;3.60;3.60;2.60
64699;PMS5003;53804;44.742;19.698;2022-08-07T01:04:16;4.00;4.00;3.00
64699;PMS5003;53804;44.742;19.698;2022-08-07T01:04:38;6.40;5.20;3.40
64699;PMS5003;53804;44.742;19.698;2022-08-07T01:04:59;4.75;4.75;2.75
64699;PMS5003;53804;44.742;19.698;2022-08-07T01:05:20;3.20;3.20;2.00
64699;PMS5003;53804;44.742;19.698;2022-08-07T01:05:43;7.20;5.80;2.80
64699;PMS5003;53804;44.742;19.698;2022-08-07T01:06:04;5.00;5.00;3.00
64699;PMS5003;53804;44.742;19.698;2022-08-07T01:06:26;4.00;4.00;2.60
64699;PMS5003;53804;44.742;19.698;2022-08-07T01:06:47;5.00;4.00;3.00
64699;PMS5003;53804;44.742;19.698;2022-08-07T01:07:11;6.00;5.00;3.00
64699;PMS5003;53804;44.742;19.698;2022-08-07T01:07:32;5.00;5.00;3.00
64699;PMS5003;53804;44.742;19.698;2022-08-07T01:07:53;4.00;4.00;2.00
64699;PMS5003;53804;44.742;19.698;2022-08-07T01:08:15;3.20;3.20;2.80
64699;PMS5003;53804;44.742;19.698;2022-08-07T01:08:36;4.00;4.00;3.00
64699;PMS5003;53804;44.742;19.698;2022-08-07T01:08:58;8.00;5.00;3.00
64699;PMS5003;53804;44.742;19.698;2022-08-07T01:09:19;3.20;3.20;2.20
64699;PMS5003;53804;44.742;19.698;2022-08-07T01:09:40;3.00;3.00;2.00
64699;PMS5003;53804;44.742;19.698;2022-08-07T01:10:02;3.60;3.60;2.60
64699;PMS5003;53804;44.742;19.698;2022-08-07T01:10:23;5.00;4.00;2.00
64699;PMS5003;53804;44.742;19.698;2022-08-07T01:10:44;6.00;4.00;2.00
64699;PMS5003;53804;44.742;19.698;2022-08-07T01:11:06;3.00;3.00;2.00
64699;PMS5003;53804;44.742;19.698;2022-08-07T01:11:30;3.00;3.00;2.00
64699;PMS5003;53804;44.742;19.698;2022-08-07T01:11:54;4.00;3.00;2.00
64699;PMS5003;53804;44.742;19.698;2022-08-07T01:12:16;6.00;4.40;4.00
64699;PMS5003;53804;44.742;19.698;2022-08-07T01:12:39;3.25;3.25;3.00
64699;PMS5003;53804;44.742;19.698;2022-08-07T01:13:00;4.00;4.00;3.00
64699;PMS5003;53804;44.742;19.698;2022-08-07T01:13:22;4.00;4.00;3.00
64699;PMS5003;53804;44.742;19.698;2022-08-07T01:13:43;4.00;4.00;3.00
64699;PMS5003;53804;44.742;19.698;2022-08-07T01:14:05;5.00;4.00;2.00
64699;PMS5003;53804;44.742;19.698;2022-08-07T01:14:27;6.00;5.00;3.40
64699;PMS5003;53804;44.742;19.698;2022-08-07T01:14:52;4.00;4.00;3.00
64699;PMS5003;53804;44.742;19.698;2022-08-07T01:15:13;4.00;4.00;3.00
64699;PMS5003;53804;44.742;19.698;2022-08-07T01:15:34;3.20;3.20;2.80
64699;PMS5003;53804;44.742;19.698;2022-08-07T01:15:56;3.60;3.60;2.60
64699;PMS5003;53804;44.742;19.698;2022-08-07T01:16:18;5.00;5.00;3.00
64699;PMS5003;53804;44.742;19.698;2022-08-07T01:16:39;5.00;5.00;3.00
64699;PMS5003;53804;44.742;19.698;2022-08-07T01:17:01;3.00;3.00;2.00
64699;PMS5003;53804;44.742;19.698;2022-08-07T01:17:25;3.00;3.00;2.00
64699;PMS5003;53804;44.742;19.698;2022-08-07T01:17:46;5.50;4.00;3.00
64699;PMS5003;53804;44.742;19.698;2022-08-07T01:18:07;3.00;3.00;3.00
64699;PMS5003;53804;44.742;19.698;2022-08-07T01:18:28;3.00;3.00;2.80
64699;PMS5003;53804;44.742;19.698;2022-08-07T01:18:49;3.00;3.00;2.00
64699;PMS5003;53804;44.742;19.698;2022-08-07T01:19:29;4.25;3.25;2.25
64699;PMS5003;53804;44.742;19.698;2022-08-07T01:19:50;5.40;5.40;4.00
64699;PMS5003;53804;44.742;19.698;2022-08-07T01:20:13;3.40;3.40;2.40
64699;PMS5003;53804;44.742;19.698;2022-08-07T01:20:37;4.20;3.40;2.80
64699;PMS5003;53804;44.742;19.698;2022-08-07T01:21:28;8.00;3.80;2.80
64699;PMS5003;53804;44.742;19.698;2022-08-07T01:21:51;3.40;3.40;1.40
64699;PMS5003;53804;44.742;19.698;2022-08-07T01:22:14;3.25;3.25;1.75
64699;PMS5003;53804;44.742;19.698;2022-08-07T01:22:36;3.80;3.80;2.80
64699;PMS5003;53804;44.742;19.698;2022-08-07T01:22:57;6.00;5.25;3.00
64699;PMS5003;53804;44.742;19.698;2022-08-07T01:23:19;4.60;3.00;2.60
64699;PMS5003;53804;44.742;19.698;2022-08-07T01:23:44;3.20;2.60;1.80
64699;PMS5003;53804;44.742;19.698;2022-08-07T01:24:05;3.00;3.00;2.00
64699;PMS5003;53804;44.742;19.698;2022-08-07T01:24:27;5.75;5.00;3.50
64699;PMS5003;53804;44.742;19.698;2022-08-07T01:24:49;6.40;4.20;2.20
64699;PMS5003;53804;44.742;19.698;2022-08-07T01:25:10;5.00;4.20;2.20
64699;PMS5003;53804;44.742;19.698;2022-08-07T01:25:32;5.40;4.00;2.00
64699;PMS5003;53804;44.742;19.698;2022-08-07T01:25:53;6.75;3.75;2.00
64699;PMS5003;53804;44.742;19.698;2022-08-07T01:26:15;3.00;1.60;1.00
64699;PMS5003;53804;44.742;19.698;2022-08-07T01:26:36;4.40;4.40;2.60
64699;PMS5003;53804;44.742;19.698;2022-08-07T01:26:58;2.60;2.60;1.80
64699;PMS5003;53804;44.742;19.698;2022-08-07T01:27:20;2.80;2.80;1.80
64699;PMS5003;53804;44.742;19.698;2022-08-07T01:27:41;3.40;3.40;2.20
64699;PMS5003;53804;44.742;19.698;2022-08-07T01:28:05;4.20;4.20;3.00
64699;PMS5003;53804;44.742;19.698;2022-08-07T01:28:26;5.00;5.00;2.25
64699;PMS5003;53804;44.742;19.698;2022-08-07T01:28:48;5.60;4.00;3.00
64699;PMS5003;53804;44.742;19.698;2022-08-07T01:29:09;5.25;4.75;2.00
64699;PMS5003;53804;44.742;19.698;2022-08-07T01:29:30;3.50;3.50;2.50
64699;PMS5003;53804;44.742;19.698;2022-08-07T01:29:53;4.00;4.00;3.00
64699;PMS5003;53804;44.742;19.698;2022-08-07T01:30:14;5.00;5.00;3.40
64699;PMS5003;53804;44.742;19.698;2022-08-07T01:30:35;3.50;3.50;2.25
64699;PMS5003;53804;44.742;19.698;2022-08-07T01:30:57;3.20;3.20;2.60
64699;PMS5003;53804;44.742;19.698;2022-08-07T01:31:19;4.00;3.00;3.00
64699;PMS5003;53804;44.742;19.698;2022-08-07T01:31:46;5.00;5.00;3.00
64699;PMS5003;53804;44.742;19.698;2022-08-07T01:32:08;4.75;4.00;3.00
64699;PMS5003;53804;44.742;19.698;2022-08-07T01:32:33;3.60;3.60;3.00
64699;PMS5003;53804;44.742;19.698;2022-08-07T01:32:54;5.00;3.60;3.00
64699;PMS5003;53804;44.742;19.698;2022-08-07T01:33:15;4.60;3.00;1.60
64699;PMS5003;53804;44.742;19.698;2022-08-07T01:33:46;6.00;3.20;2.00
64699;PMS5003;53804;44.742;19.698;2022-08-07T01:34:07;3.40;3.40;1.80
64699;PMS5003;53804;44.742;19.698;2022-08-07T01:34:29;4.60;4.60;3.00
64699;PMS5003;53804;44.742;19.698;2022-08-07T01:34:51;4.00;4.00;3.00
64699;PMS5003;53804;44.742;19.698;2022-08-07T01:35:12;3.25;3.25;3.00
64699;PMS5003;53804;44.742;19.698;2022-08-07T01:35:33;2.00;2.00;1.00
64699;PMS5003;53804;44.742;19.698;2022-08-07T01:35:58;4.20;3.20;2.00
64699;PMS5003;53804;44.742;19.698;2022-08-07T01:36:21;3.60;3.60;3.00
64699;PMS5003;53804;44.742;19.698;2022-08-07T01:36:43;6.00;6.00;3.00
64699;PMS5003;53804;44.742;19.698;2022-08-07T01:37:06;5.00;4.00;3.00
64699;PMS5003;53804;44.742;19.698;2022-08-07T01:37:27;3.00;3.00;2.00
64699;PMS5003;53804;44.742;19.698;2022-08-07T01:37:58;4.00;4.00;2.00
64699;PMS5003;53804;44.742;19.698;2022-08-07T01:38:19;4.50;3.00;2.50
64699;PMS5003;53804;44.742;19.698;2022-08-07T01:38:41;4.40;3.40;2.40
64699;PMS5003;53804;44.742;19.698;2022-08-07T01:39:03;4.00;3.75;2.50
64699;PMS5003;53804;44.742;19.698;2022-08-07T01:39:30;6.00;4.00;3.00
64699;PMS5003;53804;44.742;19.698;2022-08-07T01:39:54;3.20;3.20;2.00
64699;PMS5003;53804;44.742;19.698;2022-08-07T01:40:21;4.80;3.00;2.20
64699;PMS5003;53804;44.742;19.698;2022-08-07T01:40:45;5.50;4.00;3.00
64699;PMS5003;53804;44.742;19.698;2022-08-07T01:41:10;5.00;3.60;2.00
64699;PMS5003;53804;44.742;19.698;2022-08-07T01:41:31;4.00;4.00;3.00
64699;PMS5003;53804;44.742;19.698;2022-08-07T01:41:52;3.80;3.80;2.00
64699;PMS5003;53804;44.742;19.698;2022-08-07T01:42:19;4.00;4.00;2.00
64699;PMS5003;53804;44.742;19.698;2022-08-07T01:42:40;4.00;4.00;3.00
64699;PMS5003;53804;44.742;19.698;2022-08-07T01:43:01;5.00;5.00;3.00
64699;PMS5003;53804;44.742;19.698;2022-08-07T01:43:23;4.00;4.00;3.00
64699;PMS5003;53804;44.742;19.698;2022-08-07T01:43:44;3.00;3.00;3.00
64699;PMS5003;53804;44.742;19.698;2022-08-07T01:44:05;4.00;4.00;3.00
64699;PMS5003;53804;44.742;19.698;2022-08-07T01:44:29;5.50;4.00;3.00
64699;PMS5003;53804;44.742;19.698;2022-08-07T01:44:50;4.60;3.20;2.60
64699;PMS5003;53804;44.742;19.698;2022-08-07T01:45:12;4.00;4.00;3.00
64699;PMS5003;53804;44.742;19.698;2022-08-07T01:45:33;3.00;3.00;2.00
64699;PMS5003;53804;44.742;19.698;2022-08-07T01:45:54;4.00;4.00;2.00
64699;PMS5003;53804;44.742;19.698;2022-08-07T01:46:16;4.00;4.00;3.00
64699;PMS5003;53804;44.742;19.698;2022-08-07T01:46:38;4.00;4.00;4.00
64699;PMS5003;53804;44.742;19.698;2022-08-07T01:47:00;3.00;3.00;3.00
64699;PMS5003;53804;44.742;19.698;2022-08-07T01:47:21;4.00;4.00;2.00
64699;PMS5003;53804;44.742;19.698;2022-08-07T01:47:42;3.00;3.00;2.00
64699;PMS5003;53804;44.742;19.698;2022-08-07T01:48:03;4.80;4.80;2.80
64699;PMS5003;53804;44.742;19.698;2022-08-07T01:48:25;3.00;3.00;2.00
64699;PMS5003;53804;44.742;19.698;2022-08-07T01:48:48;4.00;4.00;3.00
64699;PMS5003;53804;44.742;19.698;2022-08-07T01:49:10;4.80;4.80;2.80
64699;PMS5003;53804;44.742;19.698;2022-08-07T01:49:32;4.25;4.25;2.50
64699;PMS5003;53804;44.742;19.698;2022-08-07T01:49:53;4.00;4.00;3.00
64699;PMS5003;53804;44.742;19.698;2022-08-07T01:50:14;3.60;3.60;2.60
64699;PMS5003;53804;44.742;19.698;2022-08-07T01:50:46;3.00;3.00;3.00
64699;PMS5003;53804;44.742;19.698;2022-08-07T01:51:10;5.00;5.00;3.00
64699;PMS5003;53804;44.742;19.698;2022-08-07T01:51:34;4.00;4.00;3.00
64699;PMS5003;53804;44.742;19.698;2022-08-07T01:52:01;6.00;4.00;3.00
64699;PMS5003;53804;44.742;19.698;2022-08-07T01:52:29;3.40;3.40;3.00
64699;PMS5003;53804;44.742;19.698;2022-08-07T01:52:51;4.00;4.00;3.00
64699;PMS5003;53804;44.742;19.698;2022-08-07T01:53:13;4.00;4.00;3.00
64699;PMS5003;53804;44.742;19.698;2022-08-07T01:53:35;6.00;4.00;3.00
64699;PMS5003;53804;44.742;19.698;2022-08-07T01:54:00;5.00;3.00;3.00
64699;PMS5003;53804;44.742;19.698;2022-08-07T01:54:22;5.25;4.75;2.75
64699;PMS5003;53804;44.742;19.698;2022-08-07T01:54:46;3.40;3.40;2.40
64699;PMS5003;53804;44.742;19.698;2022-08-07T01:55:10;5.00;5.00;3.00
64699;PMS5003;53804;44.742;19.698;2022-08-07T01:55:33;4.00;4.00;2.00
64699;PMS5003;53804;44.742;19.698;2022-08-07T01:55:57;4.00;4.00;3.00
64699;PMS5003;53804;44.742;19.698;2022-08-07T01:56:42;5.50;4.50;3.25
64699;PMS5003;53804;44.742;19.698;2022-08-07T01:57:09;5.00;5.00;3.00
64699;PMS5003;53804;44.742;19.698;2022-08-07T01:57:33;4.00;4.00;2.00
64699;PMS5003;53804;44.742;19.698;2022-08-07T01:57:57;5.00;3.40;2.40
64699;PMS5003;53804;44.742;19.698;2022-08-07T01:58:20;5.00;5.00;2.60
64699;PMS5003;53804;44.742;19.698;2022-08-07T01:58:48;3.60;3.60;3.00
64699;PMS5003;53804;44.742;19.698;2022-08-07T01:59:12;3.60;3.60;2.00
64699;PMS5003;53804;44.742;19.698;2022-08-07T01:59:42;3.00;3.00;2.00
64699;PMS5003;53804;44.742;19.698;2022-08-07T02:00:06;6.00;5.00;3.00
64699;PMS5003;53804;44.742;19.698;2022-08-07T02:00:28;4.60;4.00;2.60
64699;PMS5003;53804;44.742;19.698;2022-08-07T02:00:52;4.60;3.60;2.60
64699;PMS5003;53804;44.742;19.698;2022-08-07T02:01:16;4.00;4.00;2.00
64699;PMS5003;53804;44.742;19.698;2022-08-07T02:01:41;4.00;4.00;3.00
64699;PMS5003;53804;44.742;19.698;2022-08-07T02:02:07;4.00;4.00;3.00
64699;PMS5003;53804;44.742;19.698;2022-08-07T02:02:31;4.00;4.00;3.00
64699;PMS5003;53804;44.742;19.698;2022-08-07T02:02:55;5.00;4.00;3.00
64699;PMS5003;53804;44.742;19.698;2022-08-07T02:03:19;3.00;3.00;2.00
64699;PMS5003;53804;44.742;19.698;2022-08-07T02:03:44;2.80;2.80;2.80
64699;PMS5003;53804;44.742;19.698;2022-08-07T02:04:17;4.40;3.00;2.00
64699;PMS5003;53804;44.742;19.698;2022-08-07T02:04:42;5.40;4.00;3.00
64699;PMS5003;53804;44.742;19.698;2022-08-07T02:05:08;4.50;3.50;2.50
64699;PMS5003;53804;44.742;19.698;2022-08-07T02:05:35;3.80;3.80;1.80
64699;PMS5003;53804;44.742;19.698;2022-08-07T02:05:59;4.00;4.00;3.00
64699;PMS5003;53804;44.742;19.698;2022-08-07T02:06:22;1.00;1.00;1.00
64699;PMS5003;53804;44.742;19.698;2022-08-07T02:06:45;4.20;4.20;2.20
64699;PMS5003;53804;44.742;19.698;2022-08-07T02:07:06;5.20;4.20;2.20
64699;PMS5003;53804;44.742;19.698;2022-08-07T02:07:31;5.80;4.40;3.20
64699;PMS5003;53804;44.742;19.698;2022-08-07T02:07:53;3.20;3.20;2.60
64699;PMS5003;53804;44.742;19.698;2022-08-07T02:08:19;7.00;4.40;3.00
64699;PMS5003;53804;44.742;19.698;2022-08-07T02:08:41;6.20;3.80;2.40